Time;durP1;ratioP1;P1;durP2;ratioP2;P2;SDS_P1;SDS_P2;PMS_P1;PMS_P2;Temp;Humidity;BMP_temperature;BMP_pressure;BME280_temperature;BME280_humidity;BME280_pressure;Samples;Min_cycle;Max_cycle;Signal;HPM_P1;HPM_P2
2022/10/15 00:01:51;;;;;;;1.70;1.00;;;15.20;71.00;;;;;;5031422;28;20467;-69
2022/10/15 00:04:20;;;;;;;0.90;0.90;;;15.20;71.20;;;;;;5026341;28;20491;-69
2022/10/15 00:06:48;;;;;;;0.93;0.90;;;15.30;71.00;;;;;;5027420;28;20471;-69
2022/10/15 00:09:29;;;;;;;0.90;0.90;;;15.20;70.80;;;;;;5006987;28;20442;-69
2022/10/15 00:11:57;;;;;;;0.83;0.83;;;15.20;70.60;;;;;;5029598;28;20464;-69
2022/10/15 00:14:26;;;;;;;0.83;0.70;;;15.30;70.70;;;;;;5132778;22;20488;-67
2022/10/15 00:16:56;;;;;;;1.10;0.80;;;15.20;70.30;;;;;;5028085;28;20454;-69
2022/10/15 00:19:25;;;;;;;1.77;0.87;;;15.20;70.50;;;;;;5037219;28;20489;-69
2022/10/15 00:21:53;;;;;;;1.00;0.77;;;15.20;70.50;;;;;;5004084;28;20510;-69
2022/10/15 00:24:22;;;;;;;1.23;0.80;;;15.20;70.10;;;;;;5032906;28;20473;-69
2022/10/15 00:26:52;;;;;;;0.87;0.80;;;15.20;71.30;;;;;;4999940;28;20520;-69
2022/10/15 00:29:20;;;;;;;0.80;0.80;;;15.20;70.40;;;;;;5010620;28;20805;-69
2022/10/15 00:31:53;;;;;;;1.40;0.93;;;15.20;70.50;;;;;;5027589;28;20440;-69
2022/10/15 00:34:21;;;;;;;0.90;0.80;;;15.20;70.60;;;;;;5027058;28;20475;-69
2022/10/15 00:36:50;;;;;;;1.17;1.07;;;15.20;70.30;;;;;;5021412;28;20491;-67
2022/10/15 00:39:19;;;;;;;1.23;1.13;;;15.20;70.50;;;;;;5035142;28;20497;-69
2022/10/15 00:41:48;;;;;;;0.97;0.87;;;15.20;70.80;;;;;;5017335;28;20967;-69
2022/10/15 00:44:56;;;;;;;1.10;1.00;;;15.20;70.40;;;;;;5027663;28;20440;-69
2022/10/15 00:47:37;;;;;;;0.70;0.63;;;15.20;70.10;;;;;;5011634;28;20544;-69
2022/10/15 00:50:09;;;;;;;0.83;0.77;;;15.30;70.30;;;;;;5020685;28;20437;-69
2022/10/15 00:52:45;;;;;;;0.63;0.60;;;15.20;70.10;;;;;;5016378;28;20865;-69
2022/10/15 00:55:17;;;;;;;1.43;0.80;;;15.20;70.00;;;;;;5016096;28;20491;-69
2022/10/15 00:57:49;;;;;;;2.30;0.87;;;15.30;70.00;;;;;;5033799;28;20975;-69
2022/10/15 01:00:20;;;;;;;1.00;0.73;;;15.30;70.10;;;;;;5037576;28;20841;-69
2022/10/15 01:02:48;;;;;;;0.80;0.70;;;15.20;70.00;;;;;;5002816;28;20506;-69
2022/10/15 01:05:18;;;;;;;1.57;0.97;;;15.20;69.80;;;;;;4998515;28;20745;-69
2022/10/15 01:07:46;;;;;;;0.70;0.70;;;15.20;69.70;;;;;;5009440;28;20534;-69
2022/10/15 01:10:17;;;;;;;1.37;0.87;;;15.20;69.70;;;;;;5013153;28;20447;-69
2022/10/15 01:13:10;;;;;;;1.03;0.93;;;15.30;70.00;;;;;;5012444;28;20474;-69
2022/10/15 01:15:49;;;;;;;0.70;0.60;;;15.20;70.00;;;;;;5014597;28;20472;-69
2022/10/15 01:18:22;;;;;;;1.40;1.10;;;15.20;70.20;;;;;;5006272;28;20872;-69
2022/10/15 01:20:58;;;;;;;0.73;0.57;;;15.30;70.30;;;;;;5012857;28;20799;-67
2022/10/15 01:24:03;;;;;;;1.10;1.00;;;15.30;70.30;;;;;;4986867;28;20479;-69
2022/10/15 01:26:59;;;;;;;1.57;0.90;;;15.20;70.20;;;;;;5008248;28;21013;-69
2022/10/15 01:29:48;;;;;;;1.20;0.80;;;15.20;70.00;;;;;;5008145;28;20434;-69
2022/10/15 01:32:23;;;;;;;0.87;0.70;;;15.20;70.10;;;;;;5005349;28;20955;-69
2022/10/15 01:34:56;;;;;;;0.97;0.93;;;15.20;69.90;;;;;;5033041;28;20471;-69
2022/10/15 01:37:32;;;;;;;0.80;0.63;;;15.30;69.90;;;;;;4997204;28;20474;-69
2022/10/15 01:40:09;;;;;;;0.67;0.67;;;15.20;69.70;;;;;;5014954;28;20788;-69
2022/10/15 01:42:46;;;;;;;1.07;0.70;;;15.20;69.80;;;;;;5020497;28;20468;-69
2022/10/15 01:45:21;;;;;;;0.90;0.70;;;15.20;69.70;;;;;;5036742;28;20433;-69
2022/10/15 01:48:27;;;;;;;0.87;0.70;;;15.20;69.50;;;;;;5009246;28;21019;-69
2022/10/15 01:51:00;;;;;;;1.83;0.80;;;15.20;69.50;;;;;;5016494;28;20431;-69
2022/10/15 01:53:33;;;;;;;1.80;0.60;;;15.20;69.50;;;;;;5013919;28;20479;-69
2022/10/15 01:56:06;;;;;;;0.77;0.70;;;15.20;69.40;;;;;;5003966;28;20858;-69
2022/10/15 01:58:37;;;;;;;0.63;0.57;;;15.20;69.50;;;;;;5019239;28;20467;-69
2022/10/15 02:01:06;;;;;;;0.70;0.60;;;15.20;69.40;;;;;;5009396;28;20471;-69
2022/10/15 02:03:46;;;;;;;0.60;0.60;;;15.20;69.40;;;;;;5018266;28;20485;-69
2022/10/15 02:06:19;;;;;;;0.97;0.90;;;15.20;69.40;;;;;;5026513;28;20446;-69
2022/10/15 02:09:01;;;;;;;0.70;0.70;;;15.20;69.40;;;;;;5012584;28;20467;-69
2022/10/15 02:11:31;;;;;;;0.80;0.60;;;15.20;69.30;;;;;;5015182;28;20471;-69
2022/10/15 02:14:03;;;;;;;0.50;0.50;;;15.20;69.50;;;;;;5012679;28;20445;-69
2022/10/15 02:16:38;;;;;;;0.93;0.80;;;15.30;69.60;;;;;;4998718;28;20472;-69
2022/10/15 02:19:14;;;;;;;0.90;0.53;;;15.20;69.40;;;;;;5030275;28;20782;-69
2022/10/15 02:21:47;;;;;;;1.70;0.70;;;15.20;69.30;;;;;;5024845;28;20443;-69
2022/10/15 02:24:20;;;;;;;0.97;0.40;;;15.20;69.40;;;;;;5014058;28;20439;-69
2022/10/15 02:26:52;;;;;;;1.00;0.73;;;15.20;69.30;;;;;;5019116;28;20480;-69
2022/10/15 02:29:25;;;;;;;0.73;0.73;;;15.20;69.40;;;;;;5023369;28;20793;-69
2022/10/15 02:31:56;;;;;;;0.80;0.70;;;15.20;69.40;;;;;;5008503;28;20900;-69
2022/10/15 02:34:29;;;;;;;0.70;0.70;;;15.20;69.60;;;;;;5032300;28;20561;-69
2022/10/15 02:37:01;;;;;;;0.80;0.60;;;15.20;69.70;;;;;;5017574;28;20462;-69
2022/10/15 02:39:30;;;;;;;1.43;0.70;;;15.20;69.60;;;;;;5022632;28;20436;-69
2022/10/15 02:42:00;;;;;;;2.77;0.80;;;15.20;69.40;;;;;;5018011;28;20480;-69
2022/10/15 02:44:29;;;;;;;0.90;0.67;;;15.20;69.60;;;;;;5033325;28;20435;-69
2022/10/15 02:46:59;;;;;;;1.10;1.00;;;15.20;69.40;;;;;;4994027;28;20510;-69
2022/10/15 02:49:29;;;;;;;0.90;0.77;;;15.20;69.20;;;;;;5013691;28;20789;-69
2022/10/15 02:51:58;;;;;;;1.00;0.90;;;15.20;69.50;;;;;;5010082;28;20474;-69
2022/10/15 02:54:26;;;;;;;2.07;1.00;;;15.20;69.60;;;;;;5032168;28;20430;-69
2022/10/15 02:56:55;;;;;;;0.90;0.80;;;15.20;69.50;;;;;;5020348;28;20488;-69
2022/10/15 02:59:23;;;;;;;0.80;0.73;;;15.20;69.60;;;;;;5019707;28;20811;-69
2022/10/15 03:01:52;;;;;;;0.80;0.80;;;15.20;69.60;;;;;;5005539;28;20532;-69
2022/10/15 03:04:21;;;;;;;1.70;0.77;;;15.20;69.40;;;;;;5010212;28;20444;-69
2022/10/15 03:06:51;;;;;;;1.43;0.73;;;15.20;69.40;;;;;;5002301;28;20452;-69
2022/10/15 03:09:20;;;;;;;1.10;0.83;;;15.20;69.40;;;;;;5025059;28;20455;-69
2022/10/15 03:11:48;;;;;;;1.00;0.80;;;15.20;69.30;;;;;;5013776;28;20468;-69
2022/10/15 03:14:18;;;;;;;0.70;0.50;;;15.20;69.40;;;;;;5019224;28;20535;-69
2022/10/15 03:16:47;;;;;;;0.90;0.70;;;15.20;69.40;;;;;;5005193;28;20474;-69
2022/10/15 03:19:15;;;;;;;0.77;0.70;;;15.20;69.30;;;;;;5025077;28;20497;-69
2022/10/15 03:21:46;;;;;;;1.00;0.70;;;15.20;69.60;;;;;;5015187;28;21036;-69
2022/10/15 03:24:18;;;;;;;0.90;0.70;;;15.20;69.30;;;;;;5034941;28;20436;-69
2022/10/15 03:26:46;;;;;;;0.90;0.80;;;15.20;69.50;;;;;;5022933;28;20806;-69
2022/10/15 03:29:15;;;;;;;4.60;1.30;;;15.20;69.40;;;;;;5013115;28;20448;-69
2022/10/15 03:31:52;;;;;;;0.90;0.90;;;15.20;69.70;;;;;;5011055;28;20440;-69
2022/10/15 03:34:21;;;;;;;0.90;0.80;;;15.20;69.70;;;;;;5019111;28;20436;-69
2022/10/15 03:36:50;;;;;;;0.90;0.80;;;15.20;69.40;;;;;;5015229;28;20546;-69
2022/10/15 03:39:20;;;;;;;1.30;0.93;;;15.20;69.70;;;;;;5042114;28;20446;-69
2022/10/15 03:41:53;;;;;;;1.10;0.90;;;15.20;69.80;;;;;;5022323;28;20435;-69
2022/10/15 03:44:29;;;;;;;1.50;1.23;;;15.20;69.60;;;;;;5022328;28;20437;-69
2022/10/15 03:47:05;;;;;;;0.97;0.83;;;15.20;69.60;;;;;;5016397;28;20557;-69
2022/10/15 03:49:42;;;;;;;1.20;1.10;;;15.20;69.70;;;;;;5016373;28;20885;-69
2022/10/15 03:52:11;;;;;;;1.67;1.57;;;15.20;70.00;;;;;;5006952;28;20851;-69
2022/10/15 03:54:42;;;;;;;1.00;0.90;;;15.20;69.80;;;;;;5021829;28;20475;-69
2022/10/15 03:57:12;;;;;;;1.40;1.30;;;15.20;69.40;;;;;;5018341;28;20521;-69
2022/10/15 03:59:53;;;;;;;1.20;1.10;;;15.20;69.50;;;;;;5009050;28;20436;-69
2022/10/15 04:02:24;;;;;;;1.20;1.07;;;15.20;69.40;;;;;;5024828;28;20559;-69
2022/10/15 04:04:54;;;;;;;1.30;1.20;;;15.20;69.90;;;;;;5002549;28;20440;-69
2022/10/15 04:07:23;;;;;;;1.37;1.27;;;15.20;69.90;;;;;;5009917;28;20520;-69
2022/10/15 04:09:53;;;;;;;1.40;1.00;;;15.20;70.10;;;;;;4999742;28;20950;-69
2022/10/15 04:12:25;;;;;;;1.70;1.53;;;15.20;69.70;;;;;;5008822;28;20495;-69
2022/10/15 04:14:54;;;;;;;2.10;1.40;;;15.20;69.80;;;;;;5008764;28;20824;-69
2022/10/15 04:17:23;;;;;;;0.87;0.80;;;15.20;69.80;;;;;;5020768;28;21024;-69
2022/10/15 04:19:51;;;;;;;0.70;0.70;;;15.20;69.40;;;;;;5010153;28;20447;-69
2022/10/15 04:22:21;;;;;;;0.97;0.90;;;15.20;69.40;;;;;;5006714;28;20512;-70
2022/10/15 04:24:59;;;;;;;0.87;0.80;;;15.20;69.30;;;;;;5041003;28;20446;-69
2022/10/15 04:27:29;;;;;;;1.10;1.00;;;15.20;69.30;;;;;;5009711;28;20471;-69
2022/10/15 04:30:09;;;;;;;1.17;1.07;;;15.20;69.50;;;;;;4995316;28;20443;-67
2022/10/15 04:32:42;;;;;;;1.27;1.00;;;15.20;69.60;;;;;;5014564;28;20479;-69
2022/10/15 04:35:11;;;;;;;1.87;1.03;;;15.20;69.80;;;;;;5002746;28;20440;-69
2022/10/15 04:37:58;;;;;;;1.00;0.90;;;15.20;69.50;;;;;;5026976;28;20614;-69
2022/10/15 04:40:29;;;;;;;1.83;1.20;;;15.20;69.60;;;;;;5013646;28;20520;-67
2022/10/15 04:42:57;;;;;;;1.03;0.93;;;15.20;69.70;;;;;;5020663;28;20505;-69
2022/10/15 04:45:27;;;;;;;1.57;1.47;;;15.20;69.80;;;;;;5013301;28;20432;-69
2022/10/15 04:47:57;;;;;;;1.80;1.70;;;15.20;69.50;;;;;;5012465;28;20464;-69
2022/10/15 04:50:25;;;;;;;1.47;1.37;;;15.20;69.90;;;;;;5021693;28;20432;-69
2022/10/15 04:53:18;;;;;;;0.90;0.80;;;15.20;69.90;;;;;;5017709;28;20630;-69
2022/10/15 04:55:52;;;;;;;1.03;1.03;;;15.20;69.40;;;;;;5013912;28;20510;-69
2022/10/15 04:58:21;;;;;;;1.53;1.43;;;15.20;69.40;;;;;;4993175;28;20471;-69
2022/10/15 05:00:50;;;;;;;2.10;1.90;;;15.20;70.10;;;;;;5008931;28;20449;-69
2022/10/15 05:03:33;;;;;;;1.60;1.50;;;15.20;70.10;;;;;;5011796;28;20499;-69
2022/10/15 05:06:08;;;;;;;1.63;1.20;;;15.20;70.90;;;;;;5014009;28;20871;-69
2022/10/15 05:08:40;;;;;;;1.00;0.90;;;15.20;70.20;;;;;;5012369;28;20552;-69
2022/10/15 05:11:21;;;;;;;3.27;1.33;;;15.20;69.80;;;;;;5021193;28;20454;-69
2022/10/15 05:13:50;;;;;;;1.53;1.43;;;15.20;70.00;;;;;;5028204;28;20810;-69
2022/10/15 05:16:21;;;;;;;1.10;0.70;;;15.20;69.70;;;;;;5012167;28;20987;-69
2022/10/15 05:18:58;;;;;;;0.90;0.73;;;15.20;69.40;;;;;;5013233;28;20903;-69
2022/10/15 05:21:27;;;;;;;0.83;0.83;;;15.20;69.40;;;;;;5046420;28;20443;-69
2022/10/15 05:24:00;;;;;;;1.93;1.67;;;15.20;69.60;;;;;;5011663;28;20463;-69
2022/10/15 05:27:05;;;;;;;1.30;1.20;;;15.20;69.60;;;;;;5025779;28;20469;-69
2022/10/15 05:29:37;;;;;;;1.20;1.00;;;15.20;70.30;;;;;;5003736;28;21048;-69
2022/10/15 05:32:05;;;;;;;1.07;0.90;;;15.20;70.00;;;;;;5021678;28;20952;-69
2022/10/15 05:34:34;;;;;;;2.30;2.10;;;15.20;69.70;;;;;;5014593;28;21248;-69
2022/10/15 05:37:09;;;;;;;1.27;1.07;;;15.20;70.40;;;;;;5009593;28;20603;-69
2022/10/15 05:39:41;;;;;;;2.37;2.07;;;15.10;69.80;;;;;;5038263;28;20432;-69
2022/10/15 05:42:13;;;;;;;1.33;1.23;;;15.20;70.30;;;;;;5010053;28;20476;-69
2022/10/15 05:44:49;;;;;;;1.80;1.20;;;15.20;70.30;;;;;;5005276;28;20530;-69
2022/10/15 05:47:18;;;;;;;1.10;1.00;;;15.10;70.40;;;;;;5014149;28;20467;-69
2022/10/15 05:53:08;;;;;;;2.60;1.80;;;15.10;69.80;;;;;;5016289;28;20522;-69
2022/10/15 05:56:00;;;;;;;3.50;1.77;;;15.10;70.10;;;;;;5031275;28;20504;-72
2022/10/15 05:58:34;;;;;;;1.60;1.50;;;15.10;70.90;;;;;;5035103;28;20482;-72
2022/10/15 06:01:06;;;;;;;1.87;1.73;;;15.10;70.30;;;;;;5030118;28;20448;-71
2022/10/15 06:03:39;;;;;;;1.30;1.20;;;15.10;70.40;;;;;;5023117;28;20499;-71
2022/10/15 06:06:14;;;;;;;0.80;0.80;;;15.10;70.10;;;;;;5020735;28;20448;-69
2022/10/15 06:08:43;;;;;;;4.43;2.10;;;15.10;69.50;;;;;;5029941;28;20483;-69
2022/10/15 06:11:17;;;;;;;1.00;0.90;;;15.10;70.20;;;;;;5011223;28;20444;-69
2022/10/15 06:13:50;;;;;;;0.80;0.80;;;15.10;70.00;;;;;;5029775;28;20483;-69
2022/10/15 06:16:19;;;;;;;1.33;1.23;;;15.10;69.60;;;;;;5029620;22;20863;-69
2022/10/15 06:18:52;;;;;;;2.03;1.20;;;15.10;69.90;;;;;;4985455;28;20512;-68
2022/10/15 06:21:21;;;;;;;1.40;1.30;;;15.10;70.10;;;;;;4990660;28;20450;-68
2022/10/15 06:23:50;;;;;;;1.17;1.07;;;15.10;70.10;;;;;;4987229;28;20584;-68
2022/10/15 06:26:18;;;;;;;1.10;0.90;;;15.10;69.90;;;;;;4969647;28;20961;-67
2022/10/15 06:28:49;;;;;;;1.83;1.40;;;15.10;69.70;;;;;;4975149;28;20462;-67
2022/10/15 06:31:18;;;;;;;1.27;1.17;;;15.10;69.90;;;;;;4984578;28;21030;-69
2022/10/15 06:33:46;;;;;;;1.40;1.13;;;15.10;70.50;;;;;;4971723;28;20496;-68
2022/10/15 06:36:15;;;;;;;1.57;1.47;;;15.10;70.30;;;;;;4984037;28;20493;-70
2022/10/15 06:38:44;;;;;;;2.17;1.87;;;15.10;70.80;;;;;;4988478;28;20479;-67
2022/10/15 06:41:12;;;;;;;1.47;1.37;;;15.10;71.20;;;;;;4987405;28;20841;-68
2022/10/15 06:43:41;;;;;;;1.00;0.90;;;15.10;71.30;;;;;;4994799;28;20649;-69
2022/10/15 06:46:11;;;;;;;1.67;1.47;;;15.10;70.40;;;;;;4981720;28;20512;-66
2022/10/15 06:48:39;;;;;;;1.47;1.00;;;15.10;71.50;;;;;;4983500;28;20965;-68
2022/10/15 06:51:08;;;;;;;1.20;1.00;;;15.10;70.20;;;;;;4976193;28;20540;-68
2022/10/15 06:53:39;;;;;;;1.53;1.43;;;15.10;70.10;;;;;;4985755;28;20588;-67
2022/10/15 06:56:08;;;;;;;1.70;1.60;;;15.10;70.80;;;;;;4985686;28;20497;-67
2022/10/15 06:58:42;;;;;;;1.90;1.70;;;15.10;71.10;;;;;;4986599;28;20576;-68
2022/10/15 07:01:12;;;;;;;1.63;1.53;;;15.10;71.30;;;;;;4979649;28;20473;-69
2022/10/15 07:03:40;;;;;;;2.50;1.53;;;15.10;70.90;;;;;;4977050;28;20478;-69
2022/10/15 07:06:09;;;;;;;3.00;2.40;;;15.10;71.10;;;;;;4996966;28;20536;-68
2022/10/15 07:08:38;;;;;;;1.27;1.17;;;15.10;70.60;;;;;;4993958;28;20487;-67
2022/10/15 07:11:08;;;;;;;2.43;1.20;;;15.10;71.30;;;;;;4984473;28;20949;-67
2022/10/15 07:13:36;;;;;;;1.80;1.50;;;15.10;71.70;;;;;;4995571;28;20469;-69
2022/10/15 07:16:06;;;;;;;1.10;1.00;;;15.10;72.00;;;;;;4987381;28;20482;-69
2022/10/15 07:18:37;;;;;;;0.90;0.70;;;15.10;72.20;;;;;;4974633;28;21080;-68
2022/10/15 07:21:07;;;;;;;1.37;1.00;;;15.10;71.90;;;;;;4978789;28;20494;-69
2022/10/15 07:23:36;;;;;;;1.83;1.30;;;15.10;71.60;;;;;;4980451;28;20485;-70
2022/10/15 07:26:05;;;;;;;0.80;0.80;;;15.10;72.10;;;;;;4996828;28;20429;-68
2022/10/15 07:28:33;;;;;;;0.90;0.90;;;15.10;72.60;;;;;;4991581;28;20472;-69
2022/10/15 07:31:03;;;;;;;0.70;0.70;;;15.10;72.40;;;;;;4984895;28;20449;-67
2022/10/15 07:33:33;;;;;;;1.10;0.80;;;15.10;72.30;;;;;;4962557;28;20485;-68
2022/10/15 07:36:09;;;;;;;1.10;0.80;;;15.10;72.40;;;;;;4988790;28;21148;-69
2022/10/15 07:38:38;;;;;;;0.80;0.80;;;15.10;72.40;;;;;;4980672;28;20568;-69
2022/10/15 07:41:09;;;;;;;1.10;0.90;;;15.10;72.60;;;;;;4989872;28;20513;-69
2022/10/15 07:43:43;;;;;;;1.20;0.70;;;15.10;72.40;;;;;;4988899;28;20495;-69
2022/10/15 07:46:11;;;;;;;1.10;1.00;;;15.10;72.50;;;;;;4982613;28;20477;-69
2022/10/15 07:48:40;;;;;;;0.80;0.73;;;15.10;73.00;;;;;;4980307;28;20888;-68
2022/10/15 07:51:12;;;;;;;0.60;0.60;;;15.10;72.90;;;;;;4984868;28;20438;-68
2022/10/15 07:53:42;;;;;;;0.77;0.77;;;15.10;72.50;;;;;;4996068;28;20473;-70
2022/10/15 07:56:13;;;;;;;0.90;0.70;;;15.10;72.90;;;;;;4981787;28;20810;-69
2022/10/15 07:58:42;;;;;;;1.47;0.90;;;15.10;73.10;;;;;;4969306;28;20584;-68
2022/10/15 08:01:11;;;;;;;0.90;0.63;;;15.10;73.20;;;;;;4966943;28;20485;-68
2022/10/15 08:03:39;;;;;;;4.60;1.10;;;15.10;71.60;;;;;;4982146;28;20460;-67
2022/10/15 08:06:09;;;;;;;0.80;0.80;;;15.10;73.50;;;;;;4993290;28;20440;-69
2022/10/15 08:08:38;;;;;;;1.80;0.90;;;15.10;73.10;;;;;;5001958;28;20894;-69
2022/10/15 08:11:10;;;;;;;0.90;0.80;;;15.10;72.90;;;;;;4991627;28;20868;-67
2022/10/15 08:13:41;;;;;;;0.93;0.83;;;15.10;72.80;;;;;;4983510;28;21006;-70
2022/10/15 08:16:10;;;;;;;4.80;1.17;;;15.10;73.50;;;;;;4982939;28;20461;-68
2022/10/15 08:18:39;;;;;;;1.30;0.80;;;15.20;79.00;;;;;;4967408;28;20466;-68
2022/10/15 08:21:08;;;;;;;0.80;0.63;;;15.10;77.50;;;;;;4974536;28;20442;-68
2022/10/15 08:23:39;;;;;;;4.00;0.73;;;15.10;76.50;;;;;;4982421;28;20532;-69
2022/10/15 08:26:07;;;;;;;1.30;0.67;;;15.10;76.20;;;;;;4989885;28;20805;-69
2022/10/15 08:28:36;;;;;;;1.03;0.80;;;15.10;77.20;;;;;;4995305;28;20503;-67
2022/10/15 08:31:05;;;;;;;1.20;0.70;;;15.10;75.20;;;;;;4981226;28;20871;-66
2022/10/15 08:33:34;;;;;;;7.40;1.10;;;15.10;74.60;;;;;;4980895;28;20532;-67
2022/10/15 08:36:04;;;;;;;3.70;1.00;;;15.10;74.90;;;;;;4982785;28;20448;-68
2022/10/15 08:38:33;;;;;;;1.67;0.60;;;15.20;77.50;;;;;;4980156;28;20447;-67
2022/10/15 08:41:06;;;;;;;0.97;0.70;;;15.20;76.10;;;;;;4979876;28;20890;-69
2022/10/15 08:43:37;;;;;;;1.90;0.73;;;15.20;74.80;;;;;;4989288;28;20481;-67
2022/10/15 08:51:13;;;;;;;3.60;0.83;;;15.20;74.00;;;;;;5121557;27;20635;-51
2022/10/15 08:53:47;;;;;;;1.77;0.63;;;15.20;74.70;;;;;;5074386;28;20731;-51
2022/10/15 08:56:19;;;;;;;2.33;0.77;;;15.20;75.40;;;;;;5065598;28;20555;-53
2022/10/15 08:58:56;;;;;;;4.27;0.90;;;15.30;76.10;;;;;;5062676;28;20439;-52
2022/10/15 09:01:28;;;;;;;1.30;0.60;;;15.30;77.00;;;;;;5069640;28;20538;-52
2022/10/15 09:04:07;;;;;;;1.83;0.50;;;15.30;75.20;;;;;;5072888;28;20525;-53
2022/10/15 09:06:38;;;;;;;0.93;0.57;;;15.30;77.00;;;;;;5063725;28;20610;-51
2022/10/15 09:09:15;;;;;;;2.55;1.15;;;15.30;76.00;;;;;;5072528;28;20971;-53
2022/10/15 09:11:54;;;;;;;0.60;0.60;;;15.30;76.00;;;;;;5064732;28;20191;-51
2022/10/15 09:14:29;;;;;;;2.25;0.70;;;15.30;75.10;;;;;;5058694;28;20353;-50
2022/10/15 09:17:03;;;;;;;1.83;1.13;;;15.30;77.10;;;;;;5063590;28;20219;-53
2022/10/15 09:19:34;;;;;;;0.77;0.60;;;15.30;75.30;;;;;;5066829;28;20959;-54
2022/10/15 09:22:10;;;;;;;0.67;0.50;;;15.30;74.30;;;;;;5077199;28;20446;-51
2022/10/15 09:24:38;;;;;;;0.60;0.53;;;15.30;74.20;;;;;;5059181;28;20475;-52
2022/10/15 09:27:11;;;;;;;1.37;1.10;;;15.30;74.50;;;;;;5078912;28;20466;-52
2022/10/15 09:29:47;;;;;;;0.97;0.80;;;15.20;74.30;;;;;;5059666;28;20535;-53
2022/10/15 09:32:21;;;;;;;0.63;0.57;;;15.20;74.60;;;;;;5072883;28;20806;-51
2022/10/15 09:34:59;;;;;;;0.67;0.60;;;15.20;74.10;;;;;;5073372;28;20463;-53
2022/10/15 09:37:33;;;;;;;1.13;1.03;;;15.20;74.10;;;;;;5076451;28;20477;-51
2022/10/15 09:40:37;;;;;;;1.97;0.80;;;15.20;73.90;;;;;;5062089;28;20430;-51
2022/10/15 09:43:07;;;;;;;1.80;1.07;;;15.20;74.00;;;;;;4993707;28;20484;-51
2022/10/15 09:45:35;;;;;;;1.17;0.60;;;15.20;73.80;;;;;;5067169;28;20506;-53
2022/10/15 09:48:16;;;;;;;1.03;0.70;;;15.20;73.60;;;;;;5078392;28;20485;-53
2022/10/15 09:50:51;;;;;;;1.30;0.97;;;15.20;73.40;;;;;;5055285;28;20562;-52
2022/10/15 09:53:35;;;;;;;0.97;0.57;;;15.20;73.30;;;;;;5053238;28;21009;-51
2022/10/15 09:56:13;;;;;;;2.03;0.60;;;15.20;73.70;;;;;;5057924;28;20497;-51
2022/10/15 09:58:51;;;;;;;0.80;0.57;;;15.20;73.70;;;;;;5076570;28;20457;-52
2022/10/15 10:01:23;;;;;;;1.53;0.60;;;15.20;73.60;;;;;;5070815;28;20458;-51
2022/10/15 10:03:54;;;;;;;0.73;0.60;;;15.20;73.80;;;;;;5080138;28;20956;-54
2022/10/15 10:06:24;;;;;;;0.97;0.63;;;15.20;73.70;;;;;;5064343;28;20469;-53
2022/10/15 10:08:58;;;;;;;0.70;0.50;;;15.20;74.20;;;;;;5069418;28;20809;-54
2022/10/15 10:11:45;;;;;;;0.50;0.50;;;15.20;74.20;;;;;;5070799;28;20989;-53
2022/10/15 10:14:24;;;;;;;1.00;0.60;;;15.20;75.10;;;;;;5064339;28;20953;-51
2022/10/15 10:17:15;;;;;;;0.70;0.63;;;15.20;74.60;;;;;;5065913;28;20471;-53
2022/10/15 10:19:45;;;;;;;0.90;0.80;;;15.20;74.10;;;;;;5062635;28;20441;-53
2022/10/15 10:22:17;;;;;;;0.50;0.37;;;15.20;74.00;;;;;;5059077;28;20438;-52
2022/10/15 10:24:48;;;;;;;0.80;0.57;;;15.30;74.40;;;;;;5066871;28;20469;-52
2022/10/15 10:27:24;;;;;;;1.70;0.70;;;15.30;74.70;;;;;;5069657;28;20472;-52
2022/10/15 10:29:57;;;;;;;0.93;0.60;;;15.30;74.50;;;;;;5059040;28;20489;-52
2022/10/15 10:32:29;;;;;;;0.80;0.60;;;15.30;74.10;;;;;;5067614;28;21532;-53
2022/10/15 10:34:59;;;;;;;0.50;0.40;;;15.30;74.10;;;;;;5071675;28;20984;-53
2022/10/15 10:37:29;;;;;;;0.80;0.50;;;15.30;74.20;;;;;;5066683;28;20492;-51
2022/10/15 10:40:01;;;;;;;0.60;0.60;;;15.30;74.20;;;;;;5079618;28;20442;-53
2022/10/15 10:42:33;;;;;;;0.93;0.50;;;15.30;75.50;;;;;;5059947;28;20787;-51
2022/10/15 10:45:19;;;;;;;0.60;0.43;;;15.30;75.00;;;;;;5071641;28;20465;-51
2022/10/15 10:47:51;;;;;;;0.50;0.40;;;15.30;73.60;;;;;;5058835;28;20485;-50
2022/10/15 10:50:29;;;;;;;0.70;0.50;;;15.30;73.80;;;;;;5057460;28;20466;-52
2022/10/15 10:53:10;;;;;;;0.90;0.50;;;15.30;73.80;;;;;;5046103;28;20478;-51
2022/10/15 10:55:45;;;;;;;0.70;0.40;;;15.30;73.80;;;;;;5060556;28;20820;-52
2022/10/15 10:58:20;;;;;;;0.80;0.60;;;15.30;74.20;;;;;;5066301;28;21027;-52
2022/10/15 11:00:55;;;;;;;0.73;0.60;;;15.30;74.90;;;;;;5069128;28;20481;-51
2022/10/15 11:03:34;;;;;;;1.33;0.50;;;15.30;73.80;;;;;;5067944;28;20999;-51
2022/10/15 11:06:21;;;;;;;0.50;0.30;;;15.30;73.70;;;;;;5063042;28;20578;-52
2022/10/15 11:09:02;;;;;;;0.50;0.30;;;15.30;73.60;;;;;;5067051;28;20458;-51
2022/10/15 11:11:43;;;;;;;0.67;0.57;;;15.30;74.00;;;;;;5076097;28;20473;-52
2022/10/15 11:14:28;;;;;;;0.60;0.40;;;15.30;73.70;;;;;;5048346;28;20507;-50
2022/10/15 11:17:08;;;;;;;0.47;0.40;;;15.30;75.10;;;;;;5061219;28;20895;-51
2022/10/15 11:19:48;;;;;;;0.60;0.50;;;15.30;73.90;;;;;;5063313;28;20450;-51
2022/10/15 11:22:52;;;;;;;0.80;0.60;;;15.30;73.70;;;;;;5084398;28;20473;-52
2022/10/15 11:25:34;;;;;;;0.80;0.50;;;15.30;73.40;;;;;;5082598;28;20497;-52
2022/10/15 11:28:19;;;;;;;0.60;0.40;;;15.30;73.40;;;;;;5077011;28;20558;-53
2022/10/15 11:30:55;;;;;;;0.60;0.40;;;15.30;73.30;;;;;;5062985;28;20461;-52
2022/10/15 11:33:38;;;;;;;0.87;0.57;;;15.30;73.60;;;;;;5058415;28;20484;-52
2022/10/15 11:36:28;;;;;;;0.60;0.50;;;15.30;73.80;;;;;;5061129;28;20464;-50
2022/10/15 11:39:09;;;;;;;0.60;0.50;;;15.30;73.90;;;;;;5064993;28;20585;-52
2022/10/15 11:41:47;;;;;;;0.70;0.50;;;15.30;73.80;;;;;;5065105;28;20492;-51
2022/10/15 11:44:37;;;;;;;0.57;0.53;;;15.30;74.00;;;;;;5069180;28;20434;-51
2022/10/15 11:47:21;;;;;;;3.70;0.50;;;15.30;74.20;;;;;;5071992;28;20479;-51
2022/10/15 11:50:03;;;;;;;0.70;0.40;;;15.30;74.20;;;;;;5053188;28;20537;-53
2022/10/15 11:52:55;;;;;;;1.00;0.40;;;15.30;73.70;;;;;;5062399;28;20989;-52
2022/10/15 11:55:29;;;;;;;0.70;0.50;;;15.30;73.60;;;;;;5065878;28;20486;-53
2022/10/15 11:58:01;;;;;;;1.70;0.40;;;15.30;73.60;;;;;;5054055;28;20497;-51
2022/10/15 12:00:37;;;;;;;0.67;0.47;;;15.30;73.30;;;;;;5061097;28;20490;-52
2022/10/15 12:03:12;;;;;;;1.73;0.50;;;15.30;73.40;;;;;;5060060;28;20476;-52
2022/10/15 12:05:46;;;;;;;0.93;0.50;;;15.40;74.70;;;;;;5061260;28;20572;-52
2022/10/15 12:08:16;;;;;;;0.50;0.30;;;15.40;73.80;;;;;;5081344;28;20474;-52
2022/10/15 12:11:06;;;;;;;2.27;0.50;;;15.30;73.00;;;;;;5077697;28;20431;-51
2022/10/15 12:13:40;;;;;;;0.60;0.40;;;15.30;72.70;;;;;;5062253;28;20997;-51
2022/10/15 12:16:21;;;;;;;0.70;0.50;;;15.30;72.80;;;;;;5180294;22;20517;-72
2022/10/15 12:18:56;;;;;;;0.60;0.40;;;15.30;72.60;;;;;;5055708;28;20467;-71
2022/10/15 12:21:34;;;;;;;0.40;0.30;;;15.40;72.60;;;;;;5040525;28;20439;-72
2022/10/15 12:24:05;;;;;;;0.67;0.43;;;15.30;72.60;;;;;;5040344;28;20498;-72
2022/10/15 12:26:35;;;;;;;1.23;0.50;;;15.30;72.60;;;;;;5035851;28;20519;-72
2022/10/15 12:29:05;;;;;;;0.60;0.50;;;15.30;72.60;;;;;;5039059;28;20532;-72
2022/10/15 12:31:47;;;;;;;0.50;0.30;;;15.30;72.80;;;;;;5027799;28;20463;-72
2022/10/15 12:34:29;;;;;;;0.50;0.40;;;15.30;72.60;;;;;;5048710;28;20958;-72
2022/10/15 12:37:08;;;;;;;0.80;0.47;;;15.30;72.50;;;;;;5041070;28;20470;-72
2022/10/15 12:39:42;;;;;;;0.50;0.30;;;15.30;72.30;;;;;;5030263;28;20935;-72
2022/10/15 12:42:31;;;;;;;1.27;0.70;;;15.30;72.50;;;;;;5052300;28;20431;-71
2022/10/15 12:45:03;;;;;;;0.60;0.40;;;15.30;74.00;;;;;;5023508;28;20504;-72
2022/10/15 12:47:50;;;;;;;0.80;0.40;;;15.30;72.90;;;;;;5031785;28;20574;-72
2022/10/15 12:50:21;;;;;;;2.10;0.43;;;15.40;75.70;;;;;;5054018;28;20498;-72
2022/10/15 12:52:57;;;;;;;0.50;0.40;;;15.50;86.80;;;;;;5023339;28;20546;-72
2022/10/15 12:55:32;;;;;;;1.17;0.40;;;15.60;94.30;;;;;;5037530;28;20435;-72
2022/10/15 12:58:03;;;;;;;1.00;0.70;;;15.80;95.80;;;;;;5049785;28;20223;-72
2022/10/15 13:00:41;;;;;;;0.77;0.50;;;15.80;94.10;;;;;;5039579;28;20448;-72
2022/10/15 13:03:35;;;;;;;0.60;0.40;;;15.70;92.80;;;;;;5034082;28;20463;-72
2022/10/15 13:06:29;;;;;;;0.50;0.40;;;15.70;90.90;;;;;;5046054;28;20444;-71
2022/10/15 13:09:15;;;;;;;1.03;0.40;;;15.70;89.50;;;;;;5059967;28;20522;-72
2022/10/15 13:11:48;;;;;;;0.53;0.43;;;15.60;88.80;;;;;;5029844;28;20970;-72
2022/10/15 13:14:26;;;;;;;0.60;0.53;;;15.60;87.30;;;;;;5042906;28;20440;-72
2022/10/15 13:16:56;;;;;;;1.03;0.40;;;15.60;87.10;;;;;;5042157;28;20479;-71
2022/10/15 13:19:29;;;;;;;0.67;0.40;;;15.60;86.40;;;;;;5031046;28;20448;-72
2022/10/15 13:22:01;;;;;;;0.40;0.30;;;15.60;86.10;;;;;;5039745;28;20443;-72
2022/10/15 13:24:40;;;;;;;0.87;0.30;;;15.60;85.80;;;;;;5024018;28;20444;-72
2022/10/15 13:27:16;;;;;;;1.17;0.50;;;15.60;85.60;;;;;;5031241;28;20918;-71
2022/10/15 13:29:59;;;;;;;1.30;0.43;;;15.60;88.80;;;;;;5045265;28;20464;-72
2022/10/15 13:32:31;;;;;;;0.70;0.57;;;15.60;92.80;;;;;;5031316;28;20460;-71